MST,Max TemperatureF,Mean TemperatureF,Min TemperatureF,Max Dew PointF,MeanDew PointF,Min DewpointF,Max Humidity, Mean Humidity, Min Humidity, Max Sea Level PressureIn, Mean Sea Level PressureIn, Min Sea Level PressureIn, Max VisibilityMiles, Mean VisibilityMiles, Min VisibilityMiles, Max Wind SpeedMPH, Mean Wind SpeedMPH, Max Gust SpeedMPH,PrecipitationIn, CloudCover, Events, WindDirDegrees
2013-11-1,56,45,33,34,28,23,79,54,29,30.12,30.04,29.84,10,10,10,29,14,36,T,2,Rain,290
2013-11-2,58,43,28,33,29,25,92,64,36,30.11,29.87,29.55,10,10,10,16,8,20,0.00,1,,138
2013-11-3,52,41,30,35,26,18,92,59,26,29.87,29.68,29.53,10,10,10,24,14,30,0.00,3,,286
2013-11-4,39,29,18,24,18,14,84,61,37,30.21,30.07,29.91,10,10,10,20,11,25,0.00,2,,300
2013-11-5,42,29,15,26,18,13,92,64,36,30.24,30.17,30.10,10,10,10,17,7,21,0.00,0,,203
2013-11-6,45,33,20,31,23,17,88,67,45,30.37,30.21,30.09,10,10,10,20,8,24,0.00,4,,244
2013-11-7,51,36,21,29,25,21,96,67,38,30.38,30.14,29.67,10,10,10,23,9,28,0.00,2,,160
2013-11-8,54,43,32,37,30,25,82,59,35,30.02,29.78,29.59,10,10,10,38,15,47,0.02,5,Rain,287
2013-11-9,43,35,26,28,25,22,100,75,49,30.32,30.24,30.05,10,10,10,13,6,16,0.00,1,,240
2013-11-10,44,31,17,28,22,14,84,69,53,30.47,30.28,30.17,10,8,1,22,11,27,T,7,Snow,53
2013-11-11,27,22,16,19,15,12,91,80,68,30.69,30.59,30.39,10,7,2,15,8,18,0.01,4,Snow,84
2013-11-12,50,32,13,37,25,13,100,78,56,30.63,30.41,30.18,10,8,0,13,7,15,0.00,1,Fog,162
2013-11-13,60,46,32,37,32,29,92,66,40,30.16,30.09,30.01,10,10,10,18,8,24,0.00,3,,225
2013-11-14,54,42,29,29,27,25,78,57,35,30.04,29.91,29.73,10,10,10,22,9,26,0.00,1,,245
2013-11-15,50,36,22,29,24,21,96,64,32,29.72,29.55,29.38,10,10,4,16,9,20,0.00,1,,199
2013-11-16,44,36,27,34,29,24,100,81,62,29.46,29.36,29.29,10,9,2,10,5,13,T,5,Rain,268
2013-11-17,38,31,23,32,26,21,100,82,64,30.04,29.75,29.45,10,8,1,23,8,29,0.05,5,Snow,276
2013-11-18,50,37,24,29,25,20,88,64,39,30.02,29.95,29.79,10,10,10,13,8,15,0.00,0,,152
2013-11-19,57,41,24,32,28,20,85,62,38,29.81,29.65,29.55,10,10,10,24,9,28,0.00,0,,175
2013-11-20,24,13,1,17,8,-3,84,76,67,30.62,30.14,29.83,10,7,0,24,13,29,0.02,6,Fog-Snow,343
2013-11-21,20,6,-9,8,0,-12,92,74,56,30.75,30.68,30.62,10,10,10,10,6,12,0.00,0,,191
2013-11-22,27,14,1,12,7,-1,95,73,50,30.80,30.71,30.59,10,10,10,17,8,19,0.00,2,,48
2013-11-23,32,17,2,19,10,0,92,75,58,30.77,30.58,30.25,10,10,8,10,6,13,0.00,0,,77
2013-11-24,43,26,9,24,18,5,92,69,45,30.22,30.13,30.04,10,10,10,13,8,16,0.00,1,,256
2013-11-25,39,30,20,22,19,17,92,68,44,30.45,30.37,30.23,10,10,10,17,9,23,0.00,3,,293
2013-11-26,38,27,15,19,17,13,92,68,44,30.54,30.38,30.09,10,10,10,15,8,17,0.00,0,,129
2013-11-27,40,29,18,26,22,16,92,76,59,30.30,30.15,30.02,10,10,10,21,10,24,0.00,0,,281
2013-11-28,37,26,15,26,19,13,100,82,64,30.34,30.22,30.08,10,6,0,17,9,23,0.00,2,Fog,55
2013-11-29,54,37,20,27,23,18,92,64,35,30.12,30.07,30.01,10,10,10,14,6,15,0.00,0,,204
2013-11-30,43,35,27,32,29,24,92,79,65,30.19,30.14,30.07,10,10,10,10,5,12,T,6,Rain,185